createdAt,value
2023-03-28T00:01:52.538Z,68.85
2023-03-28T00:04:22.987Z,68.73
2023-03-28T00:06:52.092Z,68.85
2023-03-28T00:09:20.648Z,69.05
2023-03-28T00:11:48.559Z,69.01
2023-03-28T00:14:16.652Z,69.26
2023-03-28T00:16:46.829Z,69.43
2023-03-28T00:23:36.967Z,69.17
2023-03-28T00:26:08.251Z,69.12
2023-03-28T00:28:36.449Z,69.00
2023-03-28T00:31:11.448Z,68.67
2023-03-28T00:33:39.378Z,68.75
2023-03-28T00:36:10.626Z,68.89
2023-03-28T00:38:38.858Z,69.15
2023-03-28T00:41:10.753Z,68.76
2023-03-28T00:43:43.805Z,68.96
2023-03-28T00:46:38.617Z,69.06
2023-03-28T00:49:22.932Z,69.47
2023-03-28T00:52:02.512Z,69.81
2023-03-28T00:54:34.683Z,69.49
2023-03-28T00:57:07.031Z,69.72
2023-03-28T00:59:37.723Z,69.71
2023-03-28T01:02:06.509Z,69.75
2023-03-28T01:04:49.217Z,69.50
2023-03-28T01:11:32.313Z,69.84
2023-03-28T01:14:04.912Z,69.75
2023-03-28T01:16:33.955Z,69.95
2023-03-28T01:19:04.322Z,69.83
2023-03-28T01:22:23.189Z,69.84
2023-03-28T01:25:28.470Z,70.16
2023-03-28T01:28:16.905Z,70.10
2023-03-28T01:30:51.958Z,70.17
2023-03-28T01:33:48.567Z,69.84
2023-03-28T01:36:35.923Z,70.12
2023-03-28T01:39:09.818Z,70.07
2023-03-28T01:42:05.621Z,70.17
2023-03-28T01:44:44.781Z,69.86
2023-03-28T01:47:36.494Z,70.27
2023-03-28T01:50:19.298Z,70.70
2023-03-28T01:53:13.230Z,71.18
2023-03-28T01:56:08.261Z,71.90
2023-03-28T01:59:03.866Z,72.32
2023-03-28T02:02:05.211Z,72.31
2023-03-28T02:04:35.449Z,72.53
2023-03-28T02:07:05.460Z,72.72
2023-03-28T02:09:37.007Z,72.63
2023-03-28T02:12:12.638Z,72.96
2023-03-28T02:14:48.732Z,73.11
2023-03-28T02:17:17.530Z,73.25
2023-03-28T02:20:09.261Z,73.39
2023-03-28T02:23:03.476Z,73.71
2023-03-28T02:25:32.159Z,74.01
2023-03-28T02:28:05.530Z,73.93
2023-03-28T02:30:34.527Z,73.87
2023-03-28T02:33:07.060Z,74.05
2023-03-28T02:36:21.298Z,74.59
2023-03-28T02:38:56.460Z,75.09
2023-03-28T02:41:40.984Z,75.59
2023-03-28T02:44:23.331Z,76.00
2023-03-28T02:47:21.866Z,75.99
2023-03-28T02:50:00.879Z,76.18
2023-03-28T02:52:35.463Z,76.69
2023-03-28T02:55:29.635Z,76.77
2023-03-28T02:58:23.878Z,76.82
2023-03-28T03:00:52.358Z,77.15
2023-03-28T03:03:21.980Z,77.20
2023-03-28T03:05:50.375Z,77.54
2023-03-28T03:08:18.886Z,77.31
2023-03-28T03:10:49.781Z,77.26
2023-03-28T03:13:17.602Z,77.27
2023-03-28T03:15:54.591Z,77.50
2023-03-28T03:18:23.783Z,77.51
2023-03-28T03:20:53.068Z,77.77
2023-03-28T03:23:21.066Z,77.81
2023-03-28T03:25:51.091Z,77.75
2023-03-28T03:28:19.703Z,77.85
2023-03-28T03:30:47.833Z,77.80
2023-03-28T03:33:16.783Z,77.64
2023-03-28T03:42:02.479Z,78.64
2023-03-28T03:44:30.526Z,79.17
2023-03-28T03:46:58.697Z,79.12
2023-03-28T03:49:27.729Z,78.76
2023-03-28T03:51:56.235Z,78.51
2023-03-28T03:54:27.248Z,78.93
2023-03-28T03:56:55.170Z,78.82
2023-03-28T03:59:23.581Z,78.89
2023-03-28T04:01:51.579Z,78.91
2023-03-28T04:04:19.793Z,78.86
2023-03-28T04:06:47.612Z,78.87
2023-03-28T04:09:17.736Z,78.74
2023-03-28T04:11:47.842Z,78.84
2023-03-28T04:14:18.997Z,78.92
2023-03-28T04:16:52.630Z,78.90
2023-03-28T04:19:20.676Z,78.45
2023-03-28T04:21:48.992Z,78.21
2023-03-28T04:24:21.052Z,78.10
2023-03-28T04:26:56.174Z,78.10
2023-03-28T04:29:30.893Z,78.12
2023-03-28T04:31:59.494Z,78.15
2023-03-28T04:34:31.061Z,77.91
2023-03-28T04:37:03.952Z,77.29
2023-03-28T04:40:40.410Z,76.76
2023-03-28T04:43:29.688Z,76.71
2023-03-28T04:47:20.294Z,76.60
2023-03-28T04:51:24.576Z,75.56
2023-03-28T04:53:52.531Z,75.72
2023-03-28T04:56:19.125Z,75.36
2023-03-28T04:58:47.065Z,73.98
2023-03-28T05:01:14.153Z,73.25
2023-03-28T05:04:01.134Z,73.30
2023-03-28T05:06:31.067Z,72.50
2023-03-28T05:09:01.552Z,71.61
2023-03-28T05:11:28.833Z,70.60
2023-03-28T05:16:29.803Z,69.23
2023-03-28T05:20:32.772Z,69.25
2023-03-28T05:23:44.591Z,69.47
2023-03-28T05:37:59.139Z,62.75
2023-03-28T05:40:54.059Z,58.23
2023-03-28T05:43:26.373Z,55.48
2023-03-28T05:55:10.426Z,62.41
2023-03-28T05:57:38.264Z,62.44
2023-03-28T06:00:10.715Z,62.85
2023-03-28T06:02:46.121Z,63.58
2023-03-28T06:05:17.339Z,63.60
2023-03-28T06:07:46.840Z,63.95
2023-03-28T06:10:16.582Z,63.97
2023-03-28T06:12:50.939Z,63.74
2023-03-28T06:15:20.184Z,62.83
2023-03-28T06:17:53.758Z,62.54
2023-03-28T06:20:22.609Z,63.60
2023-03-28T06:22:52.990Z,64.57
2023-03-28T06:25:25.125Z,64.61
2023-03-28T06:27:53.583Z,64.60
2023-03-28T06:30:22.207Z,65.47
2023-03-28T06:32:52.388Z,66.07
2023-03-28T06:35:21.372Z,65.43
2023-03-28T06:37:50.547Z,64.86
2023-03-28T06:42:01.926Z,65.17
2023-03-28T06:45:35.711Z,66.61
2023-03-28T06:48:05.323Z,66.90
2023-03-28T06:50:37.654Z,66.89
2023-03-28T06:53:08.643Z,67.24
2023-03-28T07:07:10.075Z,70.10
2023-03-28T07:25:05.317Z,73.82
2023-03-28T07:27:33.336Z,74.87
2023-03-28T07:33:30.853Z,75.49
2023-03-28T07:36:12.774Z,75.18
2023-03-28T07:40:30.103Z,75.84
2023-03-28T07:55:09.667Z,74.24
2023-03-28T07:57:42.068Z,74.89
2023-03-28T08:00:12.670Z,74.71
2023-03-28T08:02:45.082Z,74.80
2023-03-28T08:05:12.317Z,74.90
2023-03-28T08:07:41.843Z,74.34
2023-03-28T08:10:09.094Z,74.70
2023-03-28T08:12:37.205Z,74.57
2023-03-28T08:19:10.091Z,74.36
2023-03-28T08:21:39.455Z,74.05
2023-03-28T08:24:08.783Z,73.59
2023-03-28T08:26:36.537Z,73.50
2023-03-28T08:29:04.486Z,72.39
2023-03-28T08:31:31.788Z,71.71
2023-03-28T08:33:58.408Z,71.08
2023-03-28T08:36:27.218Z,70.13
2023-03-28T08:39:05.688Z,69.64
2023-03-28T08:47:53.114Z,64.19
2023-03-28T08:50:29.560Z,63.28
2023-03-28T08:52:58.420Z,60.74
2023-03-28T08:55:38.548Z,57.07
2023-03-28T08:58:11.101Z,56.02
2023-03-28T09:00:39.517Z,55.29
2023-03-28T09:03:16.311Z,52.77
2023-03-28T09:06:31.161Z,52.53
2023-03-28T09:09:13.515Z,54.09
2023-03-28T09:11:54.329Z,52.03
2023-03-28T09:14:56.128Z,49.65
2023-03-28T09:17:41.493Z,46.28
2023-03-28T09:20:33.678Z,42.36
2023-03-28T09:23:13.849Z,38.68
2023-03-28T09:30:25.329Z,41.02
2023-03-28T09:32:58.863Z,42.78
2023-03-28T09:39:52.426Z,49.27
2023-03-28T09:43:30.815Z,55.41
2023-03-28T09:47:15.136Z,60.80
2023-03-28T09:49:45.217Z,63.88
2023-03-28T09:52:19.728Z,68.13
2023-03-28T09:54:48.995Z,70.77
2023-03-28T09:57:16.840Z,72.96
2023-03-28T10:13:25.629Z,70.85
2023-03-28T10:16:06.376Z,69.17
2023-03-28T10:30:35.485Z,69.24
2023-03-28T10:47:46.384Z,66.86
2023-03-28T10:51:09.076Z,66.81
2023-03-28T10:54:20.286Z,67.24
2023-03-28T10:56:57.792Z,68.05
2023-03-28T11:04:24.638Z,67.02
2023-03-28T11:18:03.377Z,63.70
2023-03-28T11:21:30.953Z,63.29
2023-03-28T11:24:32.593Z,61.54
2023-03-28T11:27:14.795Z,60.64
2023-03-28T11:29:54.448Z,60.11
2023-03-28T11:32:29.747Z,59.99
2023-03-28T11:35:03.054Z,59.10
2023-03-28T11:37:42.004Z,59.18
2023-03-28T11:40:17.909Z,59.58
2023-03-28T11:42:48.928Z,59.58
2023-03-28T11:45:46.703Z,60.00
2023-03-28T11:48:33.923Z,59.74
2023-03-28T11:51:18.831Z,59.60
2023-03-28T11:53:55.618Z,58.83
2023-03-28T11:56:50.732Z,58.54
2023-03-28T11:59:24.875Z,56.38
2023-03-28T12:02:03.464Z,54.54
2023-03-28T12:04:37.870Z,52.28
2023-03-28T12:07:27.924Z,51.82
2023-03-28T12:10:17.733Z,53.25
2023-03-28T12:12:56.476Z,54.80
2023-03-28T12:15:33.158Z,56.06
2023-03-28T12:18:12.576Z,57.68
2023-03-28T12:21:00.192Z,57.46
2023-03-28T12:23:41.354Z,56.63
2023-03-28T12:26:44.326Z,55.33
2023-03-28T12:29:25.599Z,53.68
2023-03-28T12:32:38.448Z,52.52
2023-03-28T12:35:24.840Z,53.85
2023-03-28T12:38:14.767Z,51.37
2023-03-28T12:40:54.334Z,50.59
2023-03-28T12:43:42.281Z,51.02
2023-03-28T12:46:15.476Z,50.75
2023-03-28T12:49:37.463Z,50.15
2023-03-28T12:52:11.817Z,48.56
2023-03-28T12:55:04.933Z,46.91
2023-03-28T12:57:56.884Z,46.75
2023-03-28T13:01:10.053Z,47.35
2023-03-28T13:04:29.379Z,45.90
2023-03-28T13:07:38.912Z,44.72
2023-03-28T13:11:06.903Z,44.63
2023-03-28T13:13:59.050Z,42.85
2023-03-28T13:18:20.467Z,42.69
2023-03-28T13:21:57.660Z,42.96
2023-03-28T13:26:08.768Z,43.40
2023-03-28T13:29:17.910Z,45.34
2023-03-28T13:33:28.451Z,45.24
2023-03-28T13:36:36.512Z,42.93
2023-03-28T13:40:48.715Z,43.00
2023-03-28T13:43:25.066Z,42.19
2023-03-28T13:46:05.990Z,41.46
2023-03-28T13:48:52.995Z,38.94
2023-03-28T13:51:45.942Z,37.08
2023-03-28T13:54:29.737Z,35.17
2023-03-28T13:57:04.311Z,33.25
2023-03-28T13:59:39.886Z,33.55
2023-03-28T14:02:34.694Z,32.54
2023-03-28T14:05:29.350Z,33.98
2023-03-28T14:08:17.566Z,37.91
2023-03-28T14:10:51.554Z,40.37
2023-03-28T14:13:49.635Z,42.82
2023-03-28T14:16:20.166Z,44.17
2023-03-28T14:18:56.831Z,43.96
2023-03-28T14:21:25.593Z,43.90
2023-03-28T14:24:49.745Z,42.91
2023-03-28T14:27:55.781Z,43.40
2023-03-28T14:30:30.133Z,43.33
2023-03-28T14:33:07.803Z,43.43
2023-03-28T14:35:37.440Z,41.58
2023-03-28T14:38:08.000Z,41.32
2023-03-28T14:41:26.649Z,41.03
2023-03-28T15:10:08.897Z,36.43
2023-03-28T15:13:11.547Z,37.40
2023-03-28T15:16:26.684Z,31.77
2023-03-28T15:20:21.133Z,28.39
2023-03-28T15:23:57.560Z,27.85
2023-03-28T15:26:35.218Z,27.31
2023-03-28T15:29:06.829Z,27.92
2023-03-28T15:31:40.400Z,28.17
2023-03-28T15:34:20.263Z,29.27
2023-03-28T15:36:57.778Z,31.50
2023-03-28T15:39:29.827Z,32.40
2023-03-28T15:48:36.505Z,39.55
2023-03-28T15:51:08.116Z,40.79
2023-03-28T15:53:38.541Z,41.58
2023-03-28T15:56:29.722Z,42.86
2023-03-28T15:59:25.528Z,43.54
2023-03-28T16:02:21.444Z,44.62
2023-03-28T16:05:05.278Z,45.44
2023-03-28T16:07:50.146Z,46.09
2023-03-28T16:10:23.898Z,46.93
2023-03-28T16:12:54.421Z,47.99
2023-03-28T16:15:22.279Z,48.66
2023-03-28T16:17:52.012Z,48.54
2023-03-28T16:20:23.274Z,48.72
2023-03-28T16:22:51.315Z,50.53
2023-03-28T16:25:19.965Z,51.97
2023-03-28T16:27:53.387Z,53.24
2023-03-28T16:30:31.903Z,54.04
2023-03-28T16:32:59.884Z,55.54
2023-03-28T16:35:29.043Z,57.18
2023-03-28T16:37:57.052Z,59.18
2023-03-28T16:40:25.031Z,59.94
2023-03-28T16:44:25.507Z,60.79
2023-03-28T16:48:02.450Z,62.02
2023-03-28T16:51:45.152Z,63.56
2023-03-28T17:05:46.521Z,63.54
2023-03-28T17:08:17.409Z,62.75
2023-03-28T17:10:45.788Z,63.11
2023-03-28T17:13:17.751Z,63.38
2023-03-28T17:19:48.394Z,64.28
2023-03-28T17:28:27.756Z,63.90
2023-03-28T17:31:01.717Z,63.88
2023-03-28T17:33:36.611Z,63.38
2023-03-28T17:36:22.433Z,63.50
2023-03-28T17:39:20.738Z,62.89
2023-03-28T17:43:12.029Z,64.00
2023-03-28T17:45:40.471Z,64.87
2023-03-28T17:48:08.604Z,64.67
2023-03-28T17:50:37.651Z,65.14
2023-03-28T17:53:06.925Z,65.59
2023-03-28T17:55:34.939Z,65.42
2023-03-28T17:59:27.182Z,65.35
2023-03-28T18:01:55.592Z,65.04
2023-03-28T18:04:25.947Z,64.88
2023-03-28T18:07:01.714Z,65.29
2023-03-28T18:09:30.070Z,65.08
2023-03-28T18:11:58.438Z,65.33
2023-03-28T18:14:26.935Z,65.16
2023-03-28T18:16:56.436Z,64.91
2023-03-28T18:19:27.143Z,65.57
2023-03-28T18:21:58.649Z,65.83
2023-03-28T18:24:26.798Z,66.12
2023-03-28T18:26:54.990Z,66.11
2023-03-28T18:29:23.159Z,66.39
2023-03-28T18:31:51.556Z,66.36
2023-03-28T18:34:20.615Z,66.28
2023-03-28T18:37:35.667Z,66.48
2023-03-28T18:40:59.102Z,66.82
2023-03-28T18:43:27.424Z,67.37
2023-03-28T18:45:55.504Z,67.33
2023-03-28T18:48:23.545Z,67.26
2023-03-28T18:50:55.329Z,67.45
2023-03-28T18:53:23.209Z,67.51
2023-03-28T18:55:53.208Z,67.57
2023-03-28T18:58:25.447Z,67.70
2023-03-28T19:00:57.244Z,67.64
2023-03-28T19:03:41.825Z,67.86
2023-03-28T19:06:12.312Z,67.89
2023-03-28T19:09:58.643Z,67.74
2023-03-28T19:14:00.789Z,68.10
2023-03-28T19:28:11.718Z,67.58
2023-03-28T19:41:30.061Z,67.10
2023-03-28T19:44:16.225Z,67.57
2023-03-28T20:02:01.620Z,66.92
2023-03-28T20:15:43.172Z,65.99
2023-03-28T20:33:58.890Z,66.51
2023-03-28T20:48:05.638Z,65.03
2023-03-28T20:50:54.015Z,64.65
2023-03-28T20:53:22.541Z,65.10
2023-03-28T20:56:09.077Z,64.52
2023-03-28T20:58:39.398Z,64.54
2023-03-28T21:01:09.661Z,64.25
2023-03-28T21:04:04.616Z,64.45
2023-03-28T21:06:38.145Z,64.25
2023-03-28T21:09:08.906Z,63.31
2023-03-28T21:11:38.692Z,63.49
2023-03-28T21:14:08.341Z,63.64
2023-03-28T21:16:37.805Z,62.99
2023-03-28T21:19:06.252Z,62.33
2023-03-28T21:21:57.267Z,62.75
2023-03-28T21:24:25.271Z,62.70
2023-03-28T21:33:40.907Z,61.08
2023-03-28T21:36:54.230Z,61.69
2023-03-28T21:40:41.086Z,61.14
2023-03-28T21:43:11.467Z,60.48
2023-03-28T21:45:39.387Z,60.05
2023-03-28T21:48:07.495Z,60.39
2023-03-28T21:50:38.789Z,60.52
2023-03-28T21:55:59.177Z,60.04
2023-03-28T22:09:45.599Z,58.20
2023-03-28T22:23:06.635Z,58.11
2023-03-28T22:25:56.605Z,58.58
2023-03-28T22:29:36.261Z,59.05
2023-03-28T22:33:24.105Z,58.44
2023-03-28T22:36:55.003Z,58.63
2023-03-28T22:40:34.872Z,58.87
2023-03-28T22:44:21.311Z,59.42
2023-03-28T22:48:00.627Z,59.54
2023-03-28T22:51:33.084Z,59.61
2023-03-28T22:54:03.217Z,59.74
2023-03-28T22:56:31.157Z,59.52
2023-03-28T22:59:01.538Z,59.23
2023-03-28T23:01:30.636Z,59.43
2023-03-28T23:03:58.549Z,58.72
2023-03-28T23:18:11.370Z,59.06
2023-03-28T23:21:18.932Z,59.63
2023-03-28T23:24:38.089Z,60.04
2023-03-28T23:28:20.392Z,60.24
2023-03-28T23:31:59.928Z,60.02
2023-03-28T23:35:34.616Z,59.71
2023-03-28T23:39:09.227Z,59.76
2023-03-28T23:42:48.248Z,60.21
2023-03-28T23:47:18.298Z,60.68
2023-03-28T23:50:54.842Z,60.68
2023-03-28T23:54:38.398Z,60.98
2023-03-28T23:58:29.239Z,60.93
